createdAt,value
2022-12-15T00:02:17.805Z,11.30
2022-12-15T00:05:03.134Z,10.65
2022-12-15T00:07:48.522Z,10.95
2022-12-15T00:10:33.977Z,10.43
2022-12-15T00:13:19.531Z,10.48
2022-12-15T00:16:07.404Z,9.70
2022-12-15T00:18:52.709Z,9.30
2022-12-15T00:21:38.116Z,10.88
2022-12-15T00:24:23.849Z,9.60
2022-12-15T00:27:09.095Z,9.73
2022-12-15T00:29:54.465Z,10.10
2022-12-15T00:32:41.139Z,10.00
2022-12-15T00:35:27.216Z,10.60
2022-12-15T00:38:12.750Z,10.88
2022-12-15T00:40:39.554Z,10.98
2022-12-15T00:43:06.406Z,11.48
2022-12-15T00:45:51.833Z,11.10
2022-12-15T00:48:18.492Z,11.00
2022-12-15T00:50:54.088Z,12.73
2022-12-15T00:53:41.217Z,10.88
2022-12-15T00:56:26.721Z,12.32
2022-12-15T00:59:12.103Z,13.77
2022-12-15T01:01:57.669Z,11.63
2022-12-15T01:04:43.177Z,13.63
2022-12-15T01:07:28.790Z,13.38
2022-12-15T01:10:13.979Z,13.10
2022-12-15T01:12:59.580Z,15.38
2022-12-15T01:15:45.218Z,14.57
2022-12-15T01:18:31.021Z,13.18
2022-12-15T01:21:03.588Z,15.35
2022-12-15T01:23:31.998Z,14.30
2022-12-15T01:25:59.007Z,15.43
2022-12-15T01:28:26.678Z,14.70
2022-12-15T01:30:53.782Z,13.45
2022-12-15T01:33:21.271Z,15.07
2022-12-15T01:36:01.521Z,14.27
2022-12-15T01:38:29.175Z,13.93
2022-12-15T01:41:03.036Z,15.35
2022-12-15T01:43:36.076Z,15.50
2022-12-15T01:46:18.143Z,14.88
2022-12-15T01:48:52.711Z,15.63
2022-12-15T01:51:39.050Z,17.70
2022-12-15T01:54:24.281Z,20.45
2022-12-15T01:57:00.314Z,17.33
2022-12-15T01:59:41.846Z,17.17
2022-12-15T02:02:11.383Z,19.52
2022-12-15T02:04:41.587Z,19.33
2022-12-15T02:09:56.125Z,13.18
2022-12-15T02:13:02.377Z,16.33
2022-12-15T02:16:03.901Z,15.75
2022-12-15T02:19:26.485Z,18.00
2022-12-15T02:22:24.111Z,16.40
2022-12-15T02:25:11.232Z,16.40
2022-12-15T02:27:56.551Z,15.43
2022-12-15T02:30:49.502Z,16.27
2022-12-15T02:33:57.085Z,16.67
2022-12-15T02:36:47.116Z,16.88
2022-12-15T02:42:01.448Z,15.88
2022-12-15T02:44:56.436Z,14.70
2022-12-15T02:47:36.356Z,19.27
2022-12-15T02:50:23.929Z,18.52
2022-12-15T02:53:04.631Z,19.38
2022-12-15T02:56:17.929Z,20.63
2022-12-15T02:59:14.517Z,18.40
2022-12-15T03:02:07.146Z,18.75
2022-12-15T03:04:39.719Z,20.00
2022-12-15T03:07:15.625Z,22.77
2022-12-15T03:10:00.230Z,22.33
2022-12-15T03:12:33.265Z,21.75
2022-12-15T03:15:11.833Z,15.23
2022-12-15T03:17:40.680Z,20.42
2022-12-15T03:20:28.143Z,20.88
2022-12-15T03:22:59.551Z,20.10
2022-12-15T03:25:32.553Z,21.52
2022-12-15T03:28:10.674Z,20.75
2022-12-15T03:30:37.381Z,22.73
2022-12-15T03:33:04.143Z,23.83
2022-12-15T03:35:31.329Z,21.20
2022-12-15T03:37:57.943Z,21.75
2022-12-15T03:40:25.051Z,20.77
2022-12-15T03:42:54.568Z,18.67
2022-12-15T03:45:32.634Z,18.35
2022-12-15T03:48:00.065Z,19.10
2022-12-15T03:50:29.334Z,19.98
2022-12-15T03:52:59.888Z,19.83
2022-12-15T03:55:33.573Z,20.50
2022-12-15T03:58:01.265Z,18.52
2022-12-15T04:00:36.312Z,21.30
2022-12-15T04:03:06.322Z,20.77
2022-12-15T04:08:11.841Z,19.30
2022-12-15T04:10:39.211Z,19.38
2022-12-15T04:13:16.172Z,19.70
2022-12-15T04:15:48.175Z,19.00
2022-12-15T04:18:17.716Z,20.88
2022-12-15T04:20:50.200Z,20.90
2022-12-15T04:23:29.467Z,20.75
2022-12-15T04:26:19.733Z,19.98
2022-12-15T04:29:05.229Z,22.40
2022-12-15T04:31:56.139Z,19.95
2022-12-15T04:34:45.795Z,19.70
2022-12-15T04:37:35.689Z,18.63
2022-12-15T04:40:28.484Z,18.75
2022-12-15T04:43:17.328Z,18.05
2022-12-15T04:46:04.001Z,18.63
2022-12-15T04:48:55.834Z,16.63
2022-12-15T04:51:47.350Z,20.65
2022-12-15T04:54:33.042Z,21.70
2022-12-15T04:57:18.385Z,21.23
2022-12-15T05:00:04.340Z,22.88
2022-12-15T05:03:00.019Z,21.98
2022-12-15T05:05:45.833Z,21.88
2022-12-15T05:08:31.481Z,22.27
2022-12-15T05:11:20.324Z,19.65
2022-12-15T05:14:10.139Z,23.23
2022-12-15T05:17:08.226Z,22.67
2022-12-15T05:19:54.016Z,22.90
2022-12-15T05:22:39.605Z,23.77
2022-12-15T05:25:26.854Z,25.13
2022-12-15T05:28:16.947Z,24.77
2022-12-15T05:33:36.189Z,22.70
2022-12-15T05:36:14.605Z,25.77
2022-12-15T05:38:56.990Z,24.80
2022-12-15T05:41:35.258Z,24.30
2022-12-15T05:44:08.698Z,25.88
2022-12-15T05:46:38.616Z,23.48
2022-12-15T05:49:13.394Z,24.20
2022-12-15T05:51:50.887Z,26.67
2022-12-15T05:54:21.854Z,27.63
2022-12-15T05:56:53.814Z,28.35
2022-12-15T05:59:24.539Z,26.00
2022-12-15T06:01:54.605Z,23.52
2022-12-15T06:09:24.037Z,21.85
2022-12-15T06:11:54.138Z,21.42
2022-12-15T06:17:01.181Z,22.65
2022-12-15T06:19:36.785Z,19.83
2022-12-15T06:22:08.809Z,20.33
2022-12-15T06:24:39.267Z,21.23
2022-12-15T06:27:17.750Z,20.23
2022-12-15T06:29:50.652Z,19.35
2022-12-15T06:32:27.444Z,19.70
2022-12-15T06:35:01.787Z,16.83
2022-12-15T06:37:33.595Z,20.15
2022-12-15T06:40:06.406Z,21.20
2022-12-15T06:42:38.313Z,21.77
2022-12-15T06:45:11.591Z,21.52
2022-12-15T06:47:38.953Z,19.70
2022-12-15T06:50:10.873Z,20.10
2022-12-15T06:52:42.215Z,21.33
2022-12-15T06:55:17.785Z,21.00
2022-12-15T06:58:13.795Z,21.88
2022-12-15T07:00:46.755Z,20.67
2022-12-15T07:03:22.793Z,22.55
2022-12-15T07:06:07.620Z,20.58
2022-12-15T07:08:41.847Z,22.75
2022-12-15T07:11:13.925Z,24.95
2022-12-15T07:13:42.930Z,22.63
2022-12-15T07:16:14.834Z,22.00
2022-12-15T07:18:42.618Z,24.42
2022-12-15T07:21:10.214Z,23.17
2022-12-15T07:23:53.979Z,23.83
2022-12-15T07:26:25.604Z,23.88
2022-12-15T07:28:59.768Z,24.42
2022-12-15T07:31:33.512Z,27.38
2022-12-15T07:34:05.521Z,28.23
2022-12-15T07:36:47.061Z,25.55
2022-12-15T07:39:20.062Z,25.20
2022-12-15T07:41:47.165Z,23.98
2022-12-15T07:44:14.823Z,22.27
2022-12-15T07:46:41.536Z,24.52
2022-12-15T07:49:10.248Z,25.08
2022-12-15T07:51:37.033Z,26.45
2022-12-15T07:54:03.834Z,26.17
2022-12-15T07:56:33.278Z,27.35
2022-12-15T07:59:05.195Z,26.58
2022-12-15T08:01:32.895Z,27.10
2022-12-15T08:03:59.724Z,27.23
2022-12-15T08:06:26.758Z,28.38
2022-12-15T08:08:53.592Z,27.60
2022-12-15T08:11:22.553Z,23.75
2022-12-15T08:14:02.648Z,24.60
2022-12-15T08:16:30.993Z,23.83
2022-12-15T08:18:57.700Z,25.73
2022-12-15T08:21:24.729Z,25.50
2022-12-15T08:23:51.510Z,25.77
2022-12-15T08:26:18.786Z,25.77
2022-12-15T08:28:45.986Z,25.85
2022-12-15T08:31:15.458Z,26.10
2022-12-15T08:33:43.159Z,23.90
2022-12-15T08:36:13.058Z,26.60
2022-12-15T08:38:41.188Z,22.42
2022-12-15T08:41:09.518Z,24.90
2022-12-15T08:43:41.136Z,27.77
2022-12-15T08:46:13.090Z,25.58
2022-12-15T08:48:40.125Z,28.52
2022-12-15T08:51:07.924Z,23.90
2022-12-15T08:53:34.578Z,27.83
2022-12-15T08:56:06.174Z,28.67
2022-12-15T08:58:33.495Z,29.25
2022-12-15T09:01:06.280Z,27.45
2022-12-15T09:03:34.148Z,28.45
2022-12-15T09:06:12.967Z,25.73
2022-12-15T09:08:39.685Z,29.63
2022-12-15T09:11:06.591Z,29.45
2022-12-15T09:13:33.607Z,31.77
2022-12-15T09:16:10.184Z,27.15
2022-12-15T09:18:37.236Z,25.58
2022-12-15T09:21:07.079Z,27.33
2022-12-15T09:23:35.832Z,27.40
2022-12-15T09:26:06.229Z,27.30
2022-12-15T09:28:33.048Z,23.63
2022-12-15T09:31:06.948Z,28.77
2022-12-15T09:33:34.265Z,29.17
2022-12-15T09:36:01.867Z,29.92
2022-12-15T09:38:28.509Z,28.63
2022-12-15T09:40:55.249Z,27.92
2022-12-15T09:43:37.955Z,27.52
2022-12-15T09:46:32.639Z,27.90
2022-12-15T09:49:02.194Z,28.73
2022-12-15T09:51:43.512Z,28.38
2022-12-15T09:54:11.687Z,28.80
2022-12-15T09:56:50.115Z,28.00
2022-12-15T09:59:26.387Z,27.45
2022-12-15T10:02:16.870Z,27.48
2022-12-15T10:05:11.174Z,27.60
2022-12-15T10:07:44.175Z,26.50
2022-12-15T10:10:24.759Z,27.73
2022-12-15T10:13:01.300Z,30.50
2022-12-15T10:15:38.550Z,30.90
2022-12-15T10:18:22.398Z,29.02
2022-12-15T10:20:52.260Z,28.90
2022-12-15T10:23:18.976Z,28.90
2022-12-15T10:25:59.147Z,30.77
2022-12-15T10:31:02.286Z,32.35
2022-12-15T10:33:35.875Z,30.80
2022-12-15T10:36:05.300Z,29.33
2022-12-15T10:38:42.379Z,31.67
2022-12-15T10:41:12.167Z,32.25
2022-12-15T10:43:41.949Z,31.73
2022-12-15T10:46:14.065Z,32.75
2022-12-15T10:48:43.133Z,28.83
2022-12-15T10:51:30.808Z,32.05
2022-12-15T10:54:00.503Z,29.70
2022-12-15T10:56:33.533Z,29.83
2022-12-15T10:59:22.340Z,27.60
2022-12-15T11:01:50.867Z,29.25
2022-12-15T11:04:27.144Z,30.15
2022-12-15T11:07:02.940Z,30.02
2022-12-15T11:09:35.271Z,30.70
2022-12-15T11:12:28.872Z,28.50
2022-12-15T11:14:55.512Z,29.60
2022-12-15T11:17:23.549Z,31.52
2022-12-15T11:20:03.453Z,30.13
2022-12-15T11:25:06.502Z,27.60
2022-12-15T11:27:43.297Z,29.00
2022-12-15T11:30:14.672Z,29.58
2022-12-15T11:32:48.859Z,30.00
2022-12-15T11:35:20.587Z,30.80
2022-12-15T11:37:56.664Z,31.08
2022-12-15T11:40:39.771Z,31.02
2022-12-15T11:43:33.975Z,31.98
2022-12-15T11:46:17.263Z,31.63
2022-12-15T11:49:12.764Z,33.42
2022-12-15T11:51:39.375Z,34.03
2022-12-15T11:54:27.648Z,32.50
2022-12-15T11:57:07.573Z,31.85
2022-12-15T12:00:02.496Z,34.33
2022-12-15T12:02:48.660Z,33.45
2022-12-15T12:05:42.958Z,33.90
2022-12-15T12:08:51.322Z,31.83
2022-12-15T12:11:36.898Z,35.13
2022-12-15T12:14:18.571Z,35.08
2022-12-15T12:17:11.320Z,32.88
2022-12-15T12:19:42.806Z,35.13
2022-12-15T12:22:30.660Z,35.78
2022-12-15T12:25:05.085Z,33.85
2022-12-15T12:27:40.724Z,35.88
2022-12-15T12:30:14.497Z,33.10
2022-12-15T12:33:06.726Z,34.53
2022-12-15T12:36:10.376Z,33.33
2022-12-15T12:38:45.995Z,34.67
2022-12-15T12:41:27.228Z,34.97
2022-12-15T12:44:01.150Z,34.70
2022-12-15T12:46:30.269Z,38.00
2022-12-15T12:49:15.176Z,35.30
2022-12-15T12:51:42.969Z,33.92
2022-12-15T12:54:35.846Z,37.05
2022-12-15T12:57:11.672Z,38.20
2022-12-15T12:59:42.111Z,37.33
2022-12-15T13:02:14.952Z,36.55
2022-12-15T13:04:49.201Z,40.45
2022-12-15T13:07:38.657Z,40.40
2022-12-15T13:10:08.253Z,40.15
2022-12-15T13:12:59.663Z,38.60
2022-12-15T13:15:32.174Z,39.55
2022-12-15T13:18:06.578Z,39.15
2022-12-15T13:20:37.544Z,38.50
2022-12-15T13:23:40.239Z,43.28
2022-12-15T13:26:06.891Z,41.38
2022-12-15T13:28:36.273Z,39.30
2022-12-15T13:31:27.448Z,42.47
2022-12-15T13:34:27.038Z,38.35
2022-12-15T13:36:58.171Z,42.13
2022-12-15T13:39:28.505Z,43.75
2022-12-15T13:42:31.685Z,42.13
2022-12-15T13:44:46.649Z,37.38
2022-12-15T13:47:25.391Z,37.63
2022-12-15T13:50:01.856Z,39.08
2022-12-15T13:53:07.839Z,41.00
2022-12-15T13:55:27.854Z,38.65
2022-12-15T13:58:00.065Z,41.57
2022-12-15T14:00:26.721Z,40.22
2022-12-15T14:03:10.827Z,38.17
2022-12-15T14:05:41.159Z,39.28
2022-12-15T14:08:12.598Z,36.80
2022-12-15T14:10:43.891Z,39.25
2022-12-15T14:13:36.938Z,42.67
2022-12-15T14:16:19.903Z,36.67
2022-12-15T14:19:08.638Z,40.25
2022-12-15T14:21:35.362Z,38.42
2022-12-15T14:24:37.083Z,39.15
2022-12-15T14:26:48.618Z,38.20
2022-12-15T14:29:17.753Z,37.83
2022-12-15T14:31:57.112Z,38.45
2022-12-15T14:34:29.172Z,38.53
2022-12-15T14:36:59.144Z,38.95
2022-12-15T14:39:28.432Z,36.00
2022-12-15T14:41:57.165Z,39.78
2022-12-15T14:44:38.167Z,36.65
2022-12-15T14:47:16.448Z,41.40
2022-12-15T14:49:45.468Z,43.10
2022-12-15T14:52:39.783Z,35.60
2022-12-15T14:55:26.159Z,41.53
2022-12-15T14:57:53.460Z,38.25
2022-12-15T15:00:35.886Z,40.65
2022-12-15T15:03:18.389Z,39.70
2022-12-15T15:05:48.041Z,39.30
2022-12-15T15:08:19.345Z,40.95
2022-12-15T15:10:46.063Z,41.92
2022-12-15T15:13:26.833Z,42.28
2022-12-15T15:15:56.393Z,45.08
2022-12-15T15:18:26.304Z,41.63
2022-12-15T15:21:05.249Z,42.28
2022-12-15T15:23:32.411Z,40.47
2022-12-15T15:26:04.796Z,32.10
2022-12-15T15:28:42.755Z,41.13
2022-12-15T15:31:24.858Z,38.00
2022-12-15T15:33:51.927Z,38.67
2022-12-15T15:36:18.740Z,40.63
2022-12-15T15:38:46.945Z,39.22
2022-12-15T15:41:18.348Z,43.60
2022-12-15T15:43:46.024Z,41.78
2022-12-15T15:46:22.533Z,37.45
2022-12-15T15:48:56.014Z,44.92
2022-12-15T15:51:25.832Z,43.00
2022-12-15T15:53:53.549Z,48.17
2022-12-15T15:56:20.948Z,48.08
2022-12-15T15:58:47.571Z,47.38
2022-12-15T16:01:14.235Z,50.08
2022-12-15T16:03:41.620Z,48.10
2022-12-15T16:06:17.092Z,48.65
2022-12-15T16:08:44.933Z,51.83
2022-12-15T16:11:12.272Z,52.67
2022-12-15T16:13:39.270Z,64.93
2022-12-15T16:16:06.590Z,53.83
2022-12-15T16:18:33.708Z,46.88
2022-12-15T16:21:00.697Z,47.72
2022-12-15T16:23:28.737Z,47.50
2022-12-15T16:26:00.163Z,43.35
2022-12-15T16:28:29.493Z,42.83
2022-12-15T16:31:01.348Z,47.20
2022-12-15T16:33:28.369Z,45.33
2022-12-15T16:35:55.096Z,33.10
2022-12-15T16:38:32.302Z,40.55
2022-12-15T16:41:06.116Z,40.67
2022-12-15T16:43:38.109Z,43.63
2022-12-15T16:46:07.440Z,43.80
2022-12-15T16:48:34.559Z,41.35
2022-12-15T16:51:02.562Z,34.67
2022-12-15T16:53:32.335Z,36.83
2022-12-15T16:56:06.589Z,40.00
2022-12-15T16:58:36.087Z,38.72
2022-12-15T17:01:03.998Z,43.65
2022-12-15T17:03:31.011Z,40.90
2022-12-15T17:06:01.245Z,46.65
2022-12-15T17:10:59.322Z,38.63
2022-12-15T17:13:39.064Z,41.55
2022-12-15T17:18:33.980Z,39.03
2022-12-15T17:21:07.017Z,43.67
2022-12-15T17:23:35.218Z,47.10
2022-12-15T17:26:22.704Z,40.60
2022-12-15T17:28:49.317Z,45.60
2022-12-15T17:31:24.053Z,44.45
2022-12-15T17:33:50.828Z,44.20
2022-12-15T17:36:21.709Z,47.92
2022-12-15T17:39:01.455Z,45.83
2022-12-15T17:41:58.010Z,42.58
2022-12-15T17:44:33.474Z,46.47
2022-12-15T17:47:00.988Z,44.20
2022-12-15T17:49:33.075Z,46.33
2022-12-15T17:52:05.063Z,44.25
2022-12-15T17:54:31.770Z,45.75
2022-12-15T17:56:58.615Z,48.05
2022-12-15T17:59:25.477Z,47.90
2022-12-15T18:01:52.198Z,43.53
2022-12-15T18:04:19.032Z,48.47
2022-12-15T18:06:45.752Z,49.60
2022-12-15T18:09:17.550Z,49.63
2022-12-15T18:11:46.614Z,52.28
2022-12-15T18:14:15.720Z,50.43
2022-12-15T18:16:42.880Z,53.92
2022-12-15T18:19:09.643Z,48.70
2022-12-15T18:21:36.515Z,52.58
2022-12-15T18:24:03.777Z,48.20
2022-12-15T18:26:31.598Z,51.58
2022-12-15T18:28:58.262Z,50.70
2022-12-15T18:31:27.010Z,48.10
2022-12-15T18:34:04.056Z,54.03
2022-12-15T18:36:31.447Z,50.13
2022-12-15T18:38:58.091Z,46.88
2022-12-15T18:41:24.735Z,47.85
2022-12-15T18:43:51.509Z,49.50
2022-12-15T18:46:20.171Z,47.08
2022-12-15T18:48:46.984Z,46.10
2022-12-15T18:51:19.335Z,46.95
2022-12-15T18:53:48.440Z,43.58
2022-12-15T18:56:18.161Z,47.20
2022-12-15T18:58:44.870Z,41.20
2022-12-15T19:01:11.711Z,45.30
2022-12-15T19:03:40.400Z,43.53
2022-12-15T19:06:23.988Z,48.53
2022-12-15T19:08:52.707Z,45.30
2022-12-15T19:11:31.195Z,44.85
2022-12-15T19:13:59.161Z,47.80
2022-12-15T19:16:26.228Z,41.17
2022-12-15T19:19:17.021Z,41.65
2022-12-15T19:22:02.919Z,44.95
2022-12-15T19:24:50.659Z,41.15
2022-12-15T19:27:20.765Z,44.53
2022-12-15T19:32:14.621Z,36.42
2022-12-15T19:34:41.258Z,38.40
2022-12-15T19:37:26.983Z,41.17
2022-12-15T19:39:55.408Z,39.53
2022-12-15T19:42:27.992Z,39.75
2022-12-15T19:44:54.620Z,40.40
2022-12-15T19:47:21.274Z,36.92
2022-12-15T19:49:47.925Z,38.45
2022-12-15T19:52:16.400Z,38.30
2022-12-15T19:54:44.620Z,40.40
2022-12-15T19:57:17.395Z,37.25
2022-12-15T19:59:44.247Z,42.03
2022-12-15T20:02:18.750Z,39.53
2022-12-15T20:04:46.291Z,39.28
2022-12-15T20:07:33.276Z,39.17
2022-12-15T20:10:00.824Z,39.00
2022-12-15T20:12:27.463Z,34.92
2022-12-15T20:14:54.109Z,38.30
2022-12-15T20:17:20.730Z,39.17
2022-12-15T20:19:47.342Z,34.53
2022-12-15T20:22:16.160Z,40.13
2022-12-15T20:24:44.340Z,38.05
2022-12-15T20:27:17.288Z,37.20
2022-12-15T20:29:44.779Z,39.95
2022-12-15T20:32:19.422Z,38.40
2022-12-15T20:34:46.504Z,36.45
2022-12-15T20:37:25.120Z,39.15
2022-12-15T20:39:57.217Z,40.22
2022-12-15T20:42:24.618Z,39.95
2022-12-15T20:44:51.324Z,35.72
2022-12-15T20:47:27.806Z,38.60
2022-12-15T20:49:55.303Z,38.13
2022-12-15T20:52:25.220Z,38.83
2022-12-15T20:54:53.360Z,38.08
2022-12-15T20:57:20.376Z,38.63
2022-12-15T20:59:47.028Z,40.05
2022-12-15T21:02:19.994Z,40.38
2022-12-15T21:04:47.063Z,40.20
2022-12-15T21:07:13.729Z,38.58
2022-12-15T21:09:40.987Z,40.83
2022-12-15T21:12:34.215Z,40.85
2022-12-15T21:15:01.402Z,38.67
2022-12-15T21:17:28.989Z,40.65
2022-12-15T21:19:55.604Z,38.85
2022-12-15T21:22:27.177Z,39.30
2022-12-15T21:24:56.261Z,39.90
2022-12-15T21:27:23.242Z,35.70
2022-12-15T21:29:52.670Z,40.22
2022-12-15T21:32:20.376Z,42.17
2022-12-15T21:34:47.043Z,40.63
2022-12-15T21:37:31.854Z,39.97
2022-12-15T21:39:59.476Z,41.75
2022-12-15T21:42:26.381Z,40.00
2022-12-15T21:44:53.014Z,38.08
2022-12-15T21:47:46.560Z,41.55
2022-12-15T21:50:13.982Z,39.05
2022-12-15T21:52:40.860Z,38.15
2022-12-15T21:55:16.304Z,39.55
2022-12-15T21:57:42.998Z,36.60
2022-12-15T22:00:18.249Z,40.60
2022-12-15T22:02:46.301Z,36.47
2022-12-15T22:05:32.492Z,35.35
2022-12-15T22:08:09.024Z,35.83
2022-12-15T22:10:35.669Z,39.67
2022-12-15T22:13:03.190Z,38.63
2022-12-15T22:15:29.967Z,37.70
2022-12-15T22:17:56.773Z,33.45
2022-12-15T22:20:24.608Z,37.42
2022-12-15T22:22:51.552Z,38.30
2022-12-15T22:25:28.544Z,34.92
2022-12-15T22:27:55.236Z,39.75
2022-12-15T22:30:26.466Z,39.88
2022-12-15T22:32:53.920Z,37.67
2022-12-15T22:35:25.836Z,38.13
2022-12-15T22:37:56.313Z,37.72
2022-12-15T22:40:24.174Z,38.97
2022-12-15T22:42:55.083Z,38.38
2022-12-15T22:45:23.924Z,35.90
2022-12-15T22:47:52.269Z,37.33
2022-12-15T22:50:23.536Z,38.53
2022-12-15T22:52:50.584Z,38.47
2022-12-15T22:55:20.416Z,37.97
2022-12-15T22:57:53.407Z,37.38
2022-12-15T23:00:20.033Z,38.88
2022-12-15T23:02:47.452Z,37.53
2022-12-15T23:05:17.051Z,41.10
2022-12-15T23:07:44.428Z,39.35
2022-12-15T23:10:32.100Z,38.90
2022-12-15T23:12:58.758Z,39.85
2022-12-15T23:15:46.012Z,41.08
2022-12-15T23:18:13.531Z,39.53
2022-12-15T23:20:40.426Z,37.88
2022-12-15T23:23:07.698Z,37.80
2022-12-15T23:25:34.956Z,35.53
2022-12-15T23:28:01.839Z,37.90
2022-12-15T23:30:28.484Z,39.30
2022-12-15T23:32:55.149Z,36.88
2022-12-15T23:35:22.254Z,37.72
2022-12-15T23:37:49.051Z,33.20
2022-12-15T23:40:21.230Z,36.72
2022-12-15T23:42:49.335Z,33.38
2022-12-15T23:45:18.097Z,34.30
2022-12-15T23:47:44.882Z,35.33
2022-12-15T23:50:11.589Z,33.67
2022-12-15T23:52:38.500Z,32.20
2022-12-15T23:55:08.004Z,34.25
2022-12-15T23:57:35.297Z,34.33
